createdAt,value
2019-04-19T00:00:56.020Z,103044.63
2019-04-19T00:03:24.241Z,103042.67
2019-04-19T00:05:54.013Z,103042.67
2019-04-19T00:08:37.328Z,103039.78
2019-04-19T00:11:06.543Z,103039.55
2019-04-19T00:13:23.916Z,103042.28
2019-04-19T00:15:52.523Z,103046.21
2019-04-19T00:18:23.318Z,103052.17
2019-04-19T00:21:14.907Z,103054.22
2019-04-19T00:23:31.116Z,103050.99
2019-04-19T00:25:53.659Z,103050.33
2019-04-19T00:28:32.237Z,103047.66
2019-04-19T00:31:04.374Z,103048.80
2019-04-19T00:33:32.052Z,103048.27
2019-04-19T00:35:53.702Z,103047.77
2019-04-19T00:38:38.243Z,103048.53
2019-04-19T00:41:13.639Z,103046.22
2019-04-19T00:43:51.022Z,103041.30
2019-04-19T00:46:24.809Z,103045.45
2019-04-19T00:48:52.553Z,103037.45
2019-04-19T00:51:17.493Z,103036.56
2019-04-19T00:53:46.488Z,103044.70
2019-04-19T00:56:15.292Z,103038.16
2019-04-19T00:58:42.715Z,103050.73
2019-04-19T01:01:14.326Z,103051.61
2019-04-19T01:03:43.634Z,103051.14
2019-04-19T01:06:13.523Z,103049.63
2019-04-19T01:08:50.876Z,103042.50
2019-04-19T01:11:24.890Z,103045.12
2019-04-19T01:13:55.831Z,103047.23
2019-04-19T01:16:21.217Z,103049.19
2019-04-19T01:18:49.828Z,103046.03
2019-04-19T01:21:09.660Z,103050.48
2019-04-19T01:23:42.233Z,103048.07
2019-04-19T01:26:10.694Z,103052.49
2019-04-19T01:28:39.950Z,103055.38
2019-04-19T01:31:13.530Z,103056.49
2019-04-19T01:33:41.583Z,103051.56
2019-04-19T01:36:08.863Z,103050.25
2019-04-19T01:38:43.585Z,103052.36
2019-04-19T01:41:20.870Z,103050.30
2019-04-19T01:43:56.460Z,103057.50
2019-04-19T01:46:43.564Z,103062.69
2019-04-19T01:49:15.272Z,103056.17
2019-04-19T01:51:51.632Z,103059.40
2019-04-19T01:54:38.366Z,103060.51
2019-04-19T01:56:55.670Z,103060.12
2019-04-19T01:59:24.772Z,103061.01
2019-04-19T02:01:58.127Z,103050.13
2019-04-19T02:04:26.183Z,103053.57
2019-04-19T02:06:52.851Z,103057.14
2019-04-19T02:09:31.563Z,103058.04
2019-04-19T02:12:11.665Z,103060.91
2019-04-19T02:14:37.501Z,103060.16
2019-04-19T02:17:04.453Z,103051.67
2019-04-19T02:19:31.909Z,103051.67
2019-04-19T02:22:07.603Z,103058.83
2019-04-19T02:24:37.342Z,103064.02
2019-04-19T02:27:04.837Z,103067.37
2019-04-19T02:29:32.068Z,103067.37
2019-04-19T02:32:31.124Z,103064.52
2019-04-19T02:34:54.295Z,103064.52
2019-04-19T02:37:37.756Z,103062.79
2019-04-19T02:40:02.383Z,103062.56
2019-04-19T02:45:08.278Z,103067.88
2019-04-19T02:47:38.479Z,103072.09
2019-04-19T02:50:11.266Z,103066.53
2019-04-19T02:52:33.251Z,103068.88
2019-04-19T02:55:04.732Z,103064.55
2019-04-19T02:57:36.381Z,103064.55
2019-04-19T03:02:54.230Z,103072.70
2019-04-19T03:07:24.114Z,103071.70
2019-04-19T03:09:53.681Z,103071.70
2019-04-19T03:12:43.894Z,103088.77
2019-04-19T03:15:06.963Z,103088.77
2019-04-19T03:17:43.334Z,103078.89
2019-04-19T03:20:10.866Z,103080.75
2019-04-19T03:22:39.778Z,103077.02
2019-04-19T03:25:12.345Z,103086.19
2019-04-19T03:27:37.124Z,103086.19
2019-04-19T03:30:09.279Z,103090.91
2019-04-19T03:33:05.163Z,103088.02
2019-04-19T03:35:06.686Z,103083.65
2019-04-19T03:37:44.024Z,103083.65
2019-04-19T03:42:44.933Z,103082.34
2019-04-19T03:45:12.859Z,103093.69
2019-04-19T03:47:53.021Z,103090.70
2019-04-19T03:50:15.652Z,103090.70
2019-04-19T03:52:42.588Z,103083.75
2019-04-19T03:55:13.198Z,103094.67
2019-04-19T03:57:41.472Z,103095.88
2019-04-19T03:59:58.426Z,103095.88
2019-04-19T04:02:31.778Z,103092.77
2019-04-19T04:05:02.614Z,103099.53
2019-04-19T04:07:29.435Z,103100.52
2019-04-19T04:10:01.017Z,103097.55
2019-04-19T04:12:41.315Z,103102.81
2019-04-19T04:15:15.522Z,103112.80
2019-04-19T04:17:33.398Z,103111.57
2019-04-19T04:20:03.134Z,103111.57
2019-04-19T04:22:37.346Z,103108.00
2019-04-19T04:25:12.647Z,103110.36
2019-04-19T04:27:47.562Z,103116.29
2019-04-19T04:30:15.754Z,103112.05
2019-04-19T04:32:50.585Z,103114.42
2019-04-19T04:35:19.383Z,103105.47
2019-04-19T04:37:44.753Z,103115.61
2019-04-19T04:40:04.179Z,103115.61
2019-04-19T04:42:40.491Z,103112.40
2019-04-19T04:45:38.707Z,103121.34
2019-04-19T04:47:53.325Z,103126.35
2019-04-19T04:50:50.548Z,103122.48
2019-04-19T04:53:03.061Z,103122.48
2019-04-19T04:55:44.955Z,103126.55
2019-04-19T04:58:18.581Z,103111.33
2019-04-19T05:00:48.246Z,103111.33
2019-04-19T05:03:34.356Z,103124.45
2019-04-19T05:06:04.105Z,103119.45
2019-04-19T05:08:30.813Z,103121.91
2019-04-19T05:11:01.068Z,103131.11
2019-04-19T05:13:46.572Z,103132.44
2019-04-19T05:15:58.365Z,103131.48
2019-04-19T05:18:29.461Z,103134.28
2019-04-19T05:20:56.007Z,103141.27
2019-04-19T05:23:30.368Z,103133.23
2019-04-19T05:26:01.103Z,103123.05
2019-04-19T05:28:27.494Z,103132.68
2019-04-19T05:30:49.817Z,103127.97
2019-04-19T05:33:23.681Z,103132.82
2019-04-19T05:36:04.373Z,103133.73
2019-04-19T05:38:44.916Z,103128.47
2019-04-19T05:41:02.533Z,103133.30
2019-04-19T05:44:11.140Z,103130.88
2019-04-19T05:46:34.929Z,103132.42
2019-04-19T05:48:49.205Z,103127.61
2019-04-19T05:51:33.888Z,103124.86
2019-04-19T05:53:46.671Z,103127.61
2019-04-19T05:56:11.597Z,103130.00
2019-04-19T05:58:52.726Z,103124.90
2019-04-19T06:01:30.441Z,103128.89
2019-04-19T06:03:58.842Z,103133.98
2019-04-19T06:06:33.660Z,103139.13
2019-04-19T06:08:42.439Z,103129.73
2019-04-19T06:11:16.144Z,103131.19
2019-04-19T06:13:44.076Z,103132.14
2019-04-19T06:16:29.103Z,103142.69
2019-04-19T06:18:55.004Z,103138.36
2019-04-19T06:21:27.393Z,103147.30
2019-04-19T06:24:05.587Z,103141.84
2019-04-19T06:26:56.592Z,103148.17
2019-04-19T06:29:06.426Z,103145.09
2019-04-19T06:31:35.115Z,103154.33
2019-04-19T06:34:06.548Z,103152.19
2019-04-19T06:36:15.810Z,103155.72
2019-04-19T06:38:44.664Z,103158.99
2019-04-19T06:41:18.284Z,103149.92
2019-04-19T06:43:56.642Z,103152.14
2019-04-19T06:46:29.072Z,103153.89
2019-04-19T06:48:55.220Z,103153.52
2019-04-19T06:51:24.437Z,103153.38
2019-04-19T06:53:50.035Z,103156.59
2019-04-19T06:56:20.204Z,103153.17
2019-04-19T06:58:51.755Z,103153.89
2019-04-19T07:01:25.831Z,103156.17
2019-04-19T07:03:44.916Z,103156.88
2019-04-19T07:06:28.433Z,103159.67
2019-04-19T07:09:07.301Z,103162.02
2019-04-19T07:11:31.332Z,103155.75
2019-04-19T07:13:54.395Z,103156.10
2019-04-19T07:16:37.071Z,103160.22
2019-04-19T07:18:56.098Z,103163.53
2019-04-19T07:21:33.531Z,103162.52
2019-04-19T07:24:14.936Z,103161.30
2019-04-19T07:26:33.781Z,103165.08
2019-04-19T07:28:45.321Z,103170.06
2019-04-19T07:31:15.135Z,103170.85
2019-04-19T07:33:55.026Z,103173.08
2019-04-19T07:36:36.182Z,103178.86
2019-04-19T07:39:05.945Z,103173.20
2019-04-19T07:41:33.484Z,103177.23
2019-04-19T07:44:02.754Z,103178.98
2019-04-19T07:46:39.859Z,103182.21
2019-04-19T07:48:53.482Z,103179.98
2019-04-19T07:51:28.592Z,103178.43
2019-04-19T07:53:54.624Z,103179.51
2019-04-19T07:56:37.178Z,103172.55
2019-04-19T07:59:22.330Z,103171.85
2019-04-19T08:02:01.561Z,103179.13
2019-04-19T08:04:39.864Z,103177.97
2019-04-19T08:06:49.955Z,103180.54
2019-04-19T08:09:18.910Z,103182.42
2019-04-19T08:11:58.888Z,103174.13
2019-04-19T08:14:35.760Z,103179.37
2019-04-19T08:17:29.195Z,103176.48
2019-04-19T08:29:06.666Z,103174.88
2019-04-19T08:31:25.367Z,103176.73
2019-04-19T08:33:54.978Z,103168.25
2019-04-19T08:36:31.086Z,103176.83
2019-04-19T08:39:15.131Z,103172.95
2019-04-19T08:41:41.578Z,103177.23
2019-04-19T08:44:10.220Z,103175.40
2019-04-19T08:46:28.302Z,103169.30
2019-04-19T08:49:02.365Z,103172.66
2019-04-19T08:51:35.737Z,103171.08
2019-04-19T08:54:29.787Z,103177.25
2019-04-19T08:56:44.236Z,103176.54
2019-04-19T08:59:28.239Z,103175.50
2019-04-19T09:01:57.644Z,103173.55
2019-04-19T09:04:23.706Z,103171.27
2019-04-19T09:07:30.516Z,103167.01
2019-04-19T09:09:25.840Z,103164.67
2019-04-19T09:11:57.947Z,103165.33
2019-04-19T09:17:05.771Z,103150.86
2019-04-19T09:19:42.477Z,103155.52
2019-04-19T09:21:48.455Z,103153.18
2019-04-19T09:24:12.852Z,103149.65
2019-04-19T09:26:57.746Z,103143.14
2019-04-19T09:29:50.763Z,103141.02
2019-04-19T09:31:53.594Z,103142.29
2019-04-19T09:34:18.709Z,103145.48
2019-04-19T09:36:57.774Z,103144.33
2019-04-19T09:39:31.215Z,103140.48
2019-04-19T09:41:52.499Z,103132.44
2019-04-19T09:44:24.209Z,103136.33
2019-04-19T09:46:44.933Z,103133.12
2019-04-19T09:49:25.399Z,103137.08
2019-04-19T09:51:58.696Z,103127.56
2019-04-19T09:54:38.678Z,103123.97
2019-04-19T09:56:59.681Z,103124.77
2019-04-19T09:59:22.351Z,103124.36
2019-04-19T10:01:49.896Z,103122.05
2019-04-19T10:04:14.789Z,103122.96
2019-04-19T10:06:44.695Z,103123.73
2019-04-19T10:09:19.885Z,103116.29
2019-04-19T10:11:46.394Z,103117.15
2019-04-19T10:14:15.173Z,103116.30
2019-04-19T10:16:51.069Z,103105.30
2019-04-19T10:19:20.896Z,103110.30
2019-04-19T10:21:51.971Z,103101.84
2019-04-19T10:24:22.544Z,103104.39
2019-04-19T10:26:52.633Z,103101.25
2019-04-19T10:29:27.137Z,103099.33
2019-04-19T10:31:54.082Z,103098.83
2019-04-19T10:34:23.115Z,103093.09
2019-04-19T10:36:54.195Z,103100.42
2019-04-19T10:39:25.863Z,103096.80
2019-04-19T10:41:54.451Z,103089.33
2019-04-19T10:44:25.261Z,103088.75
2019-04-19T10:46:54.323Z,103089.34
2019-04-19T10:49:33.399Z,103089.23
2019-04-19T10:52:00.674Z,103085.91
2019-04-19T10:54:29.151Z,103088.69
2019-04-19T10:57:14.567Z,103081.44
2019-04-19T10:59:43.224Z,103080.86
2019-04-19T11:02:11.694Z,103079.45
2019-04-19T11:04:40.628Z,103080.92
2019-04-19T11:07:09.967Z,103084.69
2019-04-19T11:09:39.558Z,103086.89
2019-04-19T11:12:08.621Z,103079.85
2019-04-19T11:14:37.049Z,103091.37
2019-04-19T11:17:07.443Z,103085.08
2019-04-19T11:19:52.163Z,103078.48
2019-04-19T11:22:06.167Z,103080.98
2019-04-19T11:24:34.599Z,103078.00
2019-04-19T11:27:03.411Z,103078.20
2019-04-19T11:29:32.187Z,103069.83
2019-04-19T11:32:06.046Z,103077.30
2019-04-19T11:34:35.497Z,103065.64
2019-04-19T11:37:05.336Z,103071.87
2019-04-19T11:39:35.008Z,103069.00
2019-04-19T11:42:03.509Z,103066.91
2019-04-19T11:44:32.816Z,103066.59
2019-04-19T11:47:03.487Z,103061.86
2019-04-19T11:49:36.961Z,103066.81
2019-04-19T11:52:03.204Z,103061.96
2019-04-19T11:54:32.541Z,103070.78
2019-04-19T11:57:09.196Z,103063.72
2019-04-19T11:59:46.730Z,103062.87
2019-04-19T12:02:27.090Z,103056.30
2019-04-19T12:04:55.549Z,103059.95
2019-04-19T12:07:24.284Z,103067.69
2019-04-19T12:09:52.861Z,103060.61
2019-04-19T12:12:21.292Z,103053.20
2019-04-19T12:14:50.158Z,103051.80
2019-04-19T12:17:18.639Z,103045.78
2019-04-19T12:19:55.054Z,103051.20
2019-04-19T12:22:17.263Z,103048.62
2019-04-19T12:24:47.521Z,103049.41
2019-04-19T12:27:15.912Z,103051.98
2019-04-19T12:29:48.080Z,103048.93
2019-04-19T12:32:15.063Z,103041.34
2019-04-19T12:34:44.609Z,103036.38
2019-04-19T12:37:13.432Z,103035.56
2019-04-19T12:39:43.150Z,103029.83
2019-04-19T12:42:13.569Z,103032.21
2019-04-19T12:44:42.108Z,103033.47
2019-04-19T12:47:11.020Z,103032.98
2019-04-19T12:49:50.959Z,103027.40
2019-04-19T12:52:10.180Z,103025.98
2019-04-19T12:54:39.342Z,103019.66
2019-04-19T12:57:07.873Z,103017.66
2019-04-19T12:59:36.306Z,103016.54
2019-04-19T13:02:06.420Z,103019.53
2019-04-19T13:04:36.494Z,103017.64
2019-04-19T13:07:06.538Z,103011.84
2019-04-19T13:09:35.061Z,103015.27
2019-04-19T13:12:04.951Z,103011.38
2019-04-19T13:14:33.540Z,102999.84
2019-04-19T13:17:02.177Z,103000.43
2019-04-19T13:19:31.254Z,102997.73
2019-04-19T13:22:00.596Z,102996.88
2019-04-19T13:24:29.144Z,102999.97
2019-04-19T13:26:57.581Z,102996.33
2019-04-19T13:29:27.290Z,102999.59
2019-04-19T13:31:56.757Z,102997.17
2019-04-19T13:34:25.359Z,102993.64
2019-04-19T13:36:55.501Z,102984.52
2019-04-19T13:39:28.261Z,102988.91
2019-04-19T13:41:58.957Z,102983.16
2019-04-19T13:44:27.408Z,102979.41
2019-04-19T13:46:55.847Z,102982.70
2019-04-19T13:49:24.475Z,102987.33
2019-04-19T13:51:53.036Z,102981.18
2019-04-19T13:54:22.811Z,102980.70
2019-04-19T13:56:52.630Z,102974.88
2019-04-19T13:59:22.267Z,102981.77
2019-04-19T14:01:52.428Z,102978.94
2019-04-19T14:04:21.720Z,102978.84
2019-04-19T14:06:50.647Z,102973.78
2019-04-19T14:09:21.005Z,102971.63
2019-04-19T14:11:49.576Z,102966.79
2019-04-19T14:14:18.466Z,102965.39
2019-04-19T14:16:47.911Z,102957.05
2019-04-19T14:19:16.462Z,102955.20
2019-04-19T14:21:44.929Z,102955.56
2019-04-19T14:24:13.594Z,102963.00
2019-04-19T14:26:48.678Z,102957.68
2019-04-19T14:29:12.331Z,102955.17
2019-04-19T14:31:42.042Z,102957.02
2019-04-19T14:34:11.092Z,102948.11
2019-04-19T14:36:40.180Z,102951.69
2019-04-19T14:39:10.864Z,102954.38
2019-04-19T14:41:41.286Z,102955.82
2019-04-19T14:44:11.216Z,102948.99
2019-04-19T14:46:40.971Z,102945.86
2019-04-19T14:49:09.534Z,102953.09
2019-04-19T14:51:40.781Z,102948.92
2019-04-19T14:54:08.980Z,102949.46
2019-04-19T14:56:37.553Z,102950.27
2019-04-19T14:59:06.142Z,102945.77
2019-04-19T15:01:51.285Z,102949.08
2019-04-19T15:04:24.630Z,102956.59
2019-04-19T15:06:53.563Z,102942.74
2019-04-19T15:09:22.097Z,102944.05
2019-04-19T15:11:50.534Z,102941.38
2019-04-19T15:14:19.008Z,102941.38
2019-04-19T15:16:47.579Z,102944.17
2019-04-19T15:19:16.713Z,102942.16
2019-04-19T15:21:46.076Z,102939.05
2019-04-19T15:24:14.802Z,102938.22
2019-04-19T15:26:43.255Z,102935.11
2019-04-19T15:29:13.139Z,102932.56
2019-04-19T15:31:42.024Z,102929.89
2019-04-19T15:34:11.445Z,102931.41
2019-04-19T15:36:40.035Z,102933.56
2019-04-19T15:39:11.047Z,102929.72
2019-04-19T15:41:40.122Z,102927.56
2019-04-19T15:44:08.636Z,102926.17
2019-04-19T15:46:37.824Z,102927.32
2019-04-19T15:49:06.487Z,102921.06
2019-04-19T15:51:38.898Z,102923.37
2019-04-19T15:54:05.836Z,102925.06
2019-04-19T15:56:34.426Z,102924.84
2019-04-19T15:59:03.115Z,102927.23
2019-04-19T16:01:34.321Z,102919.19
2019-04-19T16:04:03.778Z,102924.06
2019-04-19T16:06:36.609Z,102914.98
2019-04-19T16:09:08.678Z,102913.89
2019-04-19T16:11:50.547Z,102913.34
2019-04-19T16:14:19.827Z,102915.89
2019-04-19T16:16:49.064Z,102917.42
2019-04-19T16:19:18.550Z,102910.67
2019-04-19T16:21:52.520Z,102918.37
2019-04-19T16:24:17.261Z,102912.41
2019-04-19T16:26:46.849Z,102916.04
2019-04-19T16:29:24.727Z,102909.03
2019-04-19T16:31:46.752Z,102912.09
2019-04-19T16:34:17.765Z,102918.53
2019-04-19T16:36:45.741Z,102919.96
2019-04-19T16:39:14.964Z,102924.14
2019-04-19T16:41:44.824Z,102922.13
2019-04-19T16:44:13.699Z,102919.98
2019-04-19T16:46:43.388Z,102922.47
2019-04-19T16:49:12.755Z,102915.66
2019-04-19T16:51:47.008Z,102920.59
2019-04-19T16:54:12.069Z,102926.64
2019-04-19T16:56:41.790Z,102927.06
2019-04-19T16:59:10.473Z,102925.88
2019-04-19T17:01:39.011Z,102926.34
2019-04-19T17:04:07.990Z,102925.20
2019-04-19T17:06:36.559Z,102931.06
2019-04-19T17:09:08.777Z,102929.91
2019-04-19T17:11:37.633Z,102929.61
2019-04-19T17:14:07.178Z,102937.05
2019-04-19T17:16:48.993Z,102936.84
2019-04-19T17:19:28.924Z,102941.97
2019-04-19T17:22:08.428Z,102945.47
2019-04-19T17:24:27.673Z,102950.89
2019-04-19T17:26:56.075Z,102949.09
2019-04-19T17:29:24.829Z,102952.49
2019-04-19T17:31:54.218Z,102955.66
2019-04-19T17:34:22.793Z,102958.52
2019-04-19T17:36:51.500Z,102957.02
2019-04-19T17:39:20.487Z,102957.93
2019-04-19T17:41:50.474Z,102957.21
2019-04-19T17:44:19.748Z,102964.95
2019-04-19T17:46:48.807Z,102966.07
2019-04-19T17:49:17.417Z,102971.34
2019-04-19T17:51:57.791Z,102968.22
2019-04-19T17:54:24.199Z,102976.78
2019-04-19T17:56:47.178Z,102975.75
2019-04-19T17:59:19.226Z,102985.28
2019-04-19T18:01:46.323Z,102985.63
2019-04-19T18:04:16.680Z,102987.16
2019-04-19T18:06:50.972Z,102993.30
2019-04-19T18:09:18.187Z,102995.14
2019-04-19T18:11:45.370Z,103004.61
2019-04-19T18:14:13.862Z,103002.23
2019-04-19T18:16:42.863Z,103006.39
2019-04-19T18:19:11.265Z,103008.50
2019-04-19T18:21:42.179Z,103015.97
2019-04-19T18:24:17.453Z,103017.91
2019-04-19T18:26:41.213Z,103018.61
2019-04-19T18:29:19.206Z,103027.53
2019-04-19T18:31:46.759Z,103011.91
2019-04-19T18:34:13.246Z,103027.22
2019-04-19T18:36:46.031Z,103036.70
2019-04-19T18:39:11.885Z,103035.16
2019-04-19T18:41:41.116Z,103034.55
2019-04-19T18:44:20.371Z,103043.83
2019-04-19T18:46:40.737Z,103045.47
2019-04-19T18:49:09.691Z,103049.67
2019-04-19T18:51:43.013Z,103050.37
2019-04-19T18:54:15.429Z,103047.41
2019-04-19T18:56:38.537Z,103061.81
2019-04-19T18:59:15.212Z,103060.53
2019-04-19T19:01:39.460Z,103060.09
2019-04-19T19:04:14.547Z,103068.38
2019-04-19T19:06:41.465Z,103070.94
2019-04-19T19:09:12.311Z,103071.98
2019-04-19T19:11:38.335Z,103073.61
2019-04-19T19:14:13.383Z,103077.63
2019-04-19T19:16:39.484Z,103081.13
2019-04-19T19:19:08.820Z,103077.39
2019-04-19T19:21:41.797Z,103076.70
2019-04-19T19:24:27.064Z,103074.63
2019-04-19T19:26:53.366Z,103083.26
2019-04-19T19:29:07.967Z,103080.20
2019-04-19T19:31:36.739Z,103088.61
2019-04-19T19:34:05.735Z,103088.30
2019-04-19T19:36:42.160Z,103087.78
2019-04-19T19:39:14.443Z,103083.13
2019-04-19T19:42:24.861Z,103090.17
2019-04-19T19:44:25.280Z,103090.86
2019-04-19T19:47:10.739Z,103091.20
2019-04-19T19:51:50.066Z,103092.40
2019-04-19T19:54:43.554Z,103095.16
2019-04-19T19:57:02.510Z,103088.81
2019-04-19T19:59:22.736Z,103090.01
2019-04-19T20:01:56.186Z,103090.87
2019-04-19T20:04:13.103Z,103099.44
2019-04-19T20:06:51.947Z,103095.99
2019-04-19T20:09:15.182Z,103096.14
2019-04-19T20:11:41.899Z,103103.00
2019-04-19T20:14:17.076Z,103092.52
2019-04-19T20:16:40.461Z,103098.12
2019-04-19T20:19:13.193Z,103095.88
2019-04-19T20:21:39.092Z,103094.31
2019-04-19T20:24:16.783Z,103100.50
2019-04-19T20:26:51.931Z,103095.66
2019-04-19T20:29:16.933Z,103103.36
2019-04-19T20:31:40.939Z,103107.76
2019-04-19T20:34:08.834Z,103101.48
2019-04-19T20:36:40.411Z,103108.41
2019-04-19T20:39:07.812Z,103109.14
2019-04-19T20:41:40.200Z,103107.87
2019-04-19T20:44:19.358Z,103099.05
2019-04-19T20:46:37.896Z,103103.56
2019-04-19T20:49:08.351Z,103110.06
2019-04-19T20:51:54.631Z,103104.82
2019-04-19T20:54:41.577Z,103107.19
2019-04-19T20:57:17.761Z,103106.84
2019-04-19T20:59:35.814Z,103106.77
2019-04-19T21:01:54.889Z,103111.98
2019-04-19T21:04:24.787Z,103109.89
2019-04-19T21:06:53.843Z,103110.41
2019-04-19T21:09:26.847Z,103111.41
2019-04-19T21:11:52.765Z,103111.98
2019-04-19T21:14:27.622Z,103113.05
2019-04-19T21:16:56.454Z,103107.64
2019-04-19T21:19:22.424Z,103105.14
2019-04-19T21:21:53.998Z,103110.93
2019-04-19T21:24:22.533Z,103108.27
2019-04-19T21:26:51.340Z,103106.27
2019-04-19T21:29:24.101Z,103116.43
2019-04-19T21:31:53.069Z,103112.55
2019-04-19T21:34:24.705Z,103118.49
2019-04-19T21:36:56.922Z,103115.88
2019-04-19T21:39:20.673Z,103118.20
2019-04-19T21:41:53.815Z,103121.79
2019-04-19T21:44:22.583Z,103113.36
2019-04-19T21:46:50.295Z,103121.66
2019-04-19T21:49:21.473Z,103125.16
2019-04-19T21:51:50.310Z,103126.42
2019-04-19T21:54:18.961Z,103124.02
2019-04-19T21:56:51.046Z,103128.31
2019-04-19T21:59:21.641Z,103127.85
2019-04-19T22:01:51.064Z,103126.56
2019-04-19T22:04:18.805Z,103134.03
2019-04-19T22:06:53.895Z,103134.55
2019-04-19T22:09:21.777Z,103130.68
2019-04-19T22:11:48.028Z,103135.17
2019-04-19T22:14:21.117Z,103131.91
2019-04-19T22:16:46.872Z,103130.58
2019-04-19T22:19:21.584Z,103127.72
2019-04-19T22:21:47.872Z,103127.43
2019-04-19T22:24:22.100Z,103130.09
2019-04-19T22:26:50.389Z,103129.14
2019-04-19T22:29:17.535Z,103131.97
2019-04-19T22:31:46.017Z,103128.59
2019-04-19T22:34:14.775Z,103121.41
2019-04-19T22:36:49.617Z,103126.42
2019-04-19T22:39:13.783Z,103114.27
2019-04-19T22:41:43.137Z,103115.44
2019-04-19T22:44:12.501Z,103109.91
2019-04-19T22:46:45.803Z,103108.91
2019-04-19T22:49:13.182Z,103105.52
2019-04-19T22:51:42.531Z,103110.17
2019-04-19T22:54:11.081Z,103114.47
2019-04-19T22:56:53.004Z,103118.31
2019-04-19T22:59:14.482Z,103115.03
2019-04-19T23:01:45.526Z,103119.89
2019-04-19T23:04:19.173Z,103121.20
2019-04-19T23:06:44.883Z,103113.25
2019-04-19T23:09:17.694Z,103111.78
2019-04-19T23:11:43.843Z,103116.95
2019-04-19T23:14:13.594Z,103115.30
2019-04-19T23:16:50.177Z,103112.48
2019-04-19T23:19:14.545Z,103114.34
2019-04-19T23:21:48.349Z,103114.58
2019-04-19T23:24:16.150Z,103107.32
2019-04-19T23:27:00.181Z,103109.21
2019-04-19T23:29:20.889Z,103106.64
2019-04-19T23:31:47.650Z,103107.02
2019-04-19T23:34:14.186Z,103113.53
2019-04-19T23:36:42.731Z,103117.19
2019-04-19T23:39:14.154Z,103106.77
2019-04-19T23:41:41.279Z,103109.08
2019-04-19T23:44:13.416Z,103113.70
2019-04-19T23:46:41.264Z,103112.62
2019-04-19T23:49:13.504Z,103109.94
2019-04-19T23:51:41.045Z,103113.05
2019-04-19T23:54:16.426Z,103107.38
2019-04-19T23:56:56.964Z,103108.52
2019-04-19T23:59:15.522Z,103103.70
